sensor_id;sensor_type;location;lat;lon;timestamp;P1;durP1;ratioP1;P2;durP2;ratioP2
9115;SDS011;4593;53.652;10.168;2023-02-01T00:01:54;14.43;;;3.43;;
9115;SDS011;4593;53.652;10.168;2023-02-01T00:04:20;3.97;;;2.70;;
9115;SDS011;4593;53.652;10.168;2023-02-01T00:06:47;11.60;;;3.10;;
9115;SDS011;4593;53.652;10.168;2023-02-01T00:09:13;15.03;;;3.37;;
9115;SDS011;4593;53.652;10.168;2023-02-01T00:11:39;17.13;;;3.40;;
9115;SDS011;4593;53.652;10.168;2023-02-01T00:14:06;10.87;;;3.40;;
9115;SDS011;4593;53.652;10.168;2023-02-01T00:16:33;9.00;;;2.63;;
9115;SDS011;4593;53.652;10.168;2023-02-01T00:19:06;15.97;;;4.57;;
9115;SDS011;4593;53.652;10.168;2023-02-01T00:21:32;10.83;;;3.20;;
9115;SDS011;4593;53.652;10.168;2023-02-01T00:23:58;7.33;;;3.00;;
9115;SDS011;4593;53.652;10.168;2023-02-01T00:28:53;8.70;;;2.20;;
9115;SDS011;4593;53.652;10.168;2023-02-01T00:31:19;18.80;;;2.60;;
9115;SDS011;4593;53.652;10.168;2023-02-01T00:33:49;9.70;;;2.93;;
9115;SDS011;4593;53.652;10.168;2023-02-01T00:36:15;14.83;;;2.77;;
9115;SDS011;4593;53.652;10.168;2023-02-01T00:38:41;11.13;;;2.87;;
9115;SDS011;4593;53.652;10.168;2023-02-01T00:41:10;12.17;;;2.60;;
9115;SDS011;4593;53.652;10.168;2023-02-01T00:43:36;21.37;;;3.87;;
9115;SDS011;4593;53.652;10.168;2023-02-01T00:46:02;9.17;;;3.53;;
9115;SDS011;4593;53.652;10.168;2023-02-01T00:48:28;7.67;;;3.37;;
9115;SDS011;4593;53.652;10.168;2023-02-01T00:50:58;11.17;;;3.30;;
9115;SDS011;4593;53.652;10.168;2023-02-01T00:53:24;18.23;;;3.40;;
9115;SDS011;4593;53.652;10.168;2023-02-01T00:55:50;16.43;;;4.17;;
9115;SDS011;4593;53.652;10.168;2023-02-01T00:58:16;10.87;;;3.60;;
9115;SDS011;4593;53.652;10.168;2023-02-01T01:00:42;13.27;;;3.87;;
9115;SDS011;4593;53.652;10.168;2023-02-01T01:03:08;24.07;;;4.73;;
9115;SDS011;4593;53.652;10.168;2023-02-01T01:05:44;11.80;;;4.33;;
9115;SDS011;4593;53.652;10.168;2023-02-01T01:08:10;15.53;;;3.57;;
9115;SDS011;4593;53.652;10.168;2023-02-01T01:10:36;12.90;;;3.03;;
9115;SDS011;4593;53.652;10.168;2023-02-01T01:13:02;19.23;;;4.00;;
9115;SDS011;4593;53.652;10.168;2023-02-01T01:15:28;23.73;;;4.17;;
9115;SDS011;4593;53.652;10.168;2023-02-01T01:17:54;8.67;;;3.70;;
9115;SDS011;4593;53.652;10.168;2023-02-01T01:20:20;10.90;;;3.47;;
9115;SDS011;4593;53.652;10.168;2023-02-01T01:22:47;17.83;;;3.60;;
9115;SDS011;4593;53.652;10.168;2023-02-01T01:25:13;16.30;;;3.23;;
9115;SDS011;4593;53.652;10.168;2023-02-01T01:27:39;18.40;;;3.77;;
9115;SDS011;4593;53.652;10.168;2023-02-01T01:30:06;10.77;;;3.77;;
9115;SDS011;4593;53.652;10.168;2023-02-01T01:32:32;26.40;;;5.07;;
9115;SDS011;4593;53.652;10.168;2023-02-01T01:34:58;18.93;;;4.73;;
9115;SDS011;4593;53.652;10.168;2023-02-01T01:37:24;20.30;;;4.67;;
9115;SDS011;4593;53.652;10.168;2023-02-01T01:39:50;15.90;;;4.17;;
9115;SDS011;4593;53.652;10.168;2023-02-01T01:42:16;20.57;;;3.97;;
9115;SDS011;4593;53.652;10.168;2023-02-01T01:47:24;16.07;;;3.83;;
9115;SDS011;4593;53.652;10.168;2023-02-01T01:49:51;5.67;;;2.87;;
9115;SDS011;4593;53.652;10.168;2023-02-01T01:52:17;12.67;;;3.57;;
9115;SDS011;4593;53.652;10.168;2023-02-01T01:54:45;16.07;;;4.73;;
9115;SDS011;4593;53.652;10.168;2023-02-01T01:57:13;10.47;;;2.97;;
9115;SDS011;4593;53.652;10.168;2023-02-01T01:59:40;17.97;;;4.93;;
9115;SDS011;4593;53.652;10.168;2023-02-01T02:02:07;12.60;;;4.23;;
9115;SDS011;4593;53.652;10.168;2023-02-01T02:04:34;9.13;;;3.80;;
9115;SDS011;4593;53.652;10.168;2023-02-01T02:07:03;15.17;;;2.73;;
9115;SDS011;4593;53.652;10.168;2023-02-01T02:09:29;8.67;;;3.40;;
9115;SDS011;4593;53.652;10.168;2023-02-01T02:11:55;25.67;;;4.80;;
9115;SDS011;4593;53.652;10.168;2023-02-01T02:14:22;22.90;;;4.47;;
9115;SDS011;4593;53.652;10.168;2023-02-01T02:22:04;26.57;;;3.53;;
9115;SDS011;4593;53.652;10.168;2023-02-01T02:24:43;16.63;;;4.03;;
9115;SDS011;4593;53.652;10.168;2023-02-01T02:30:00;24.83;;;4.40;;
9115;SDS011;4593;53.652;10.168;2023-02-01T02:34:57;15.93;;;3.57;;
9115;SDS011;4593;53.652;10.168;2023-02-01T02:40:02;15.73;;;4.13;;
9115;SDS011;4593;53.652;10.168;2023-02-01T02:42:44;11.90;;;4.20;;
9115;SDS011;4593;53.652;10.168;2023-02-01T02:45:37;13.27;;;3.87;;
9115;SDS011;4593;53.652;10.168;2023-02-01T02:50:55;19.07;;;4.07;;
9115;SDS011;4593;53.652;10.168;2023-02-01T02:53:47;13.93;;;5.10;;
9115;SDS011;4593;53.652;10.168;2023-02-01T02:56:33;8.43;;;3.50;;
9115;SDS011;4593;53.652;10.168;2023-02-01T02:59:20;13.13;;;2.97;;
9115;SDS011;4593;53.652;10.168;2023-02-01T03:02:05;4.47;;;2.70;;
9115;SDS011;4593;53.652;10.168;2023-02-01T03:04:53;9.13;;;2.77;;
9115;SDS011;4593;53.652;10.168;2023-02-01T03:10:07;16.13;;;3.23;;
9115;SDS011;4593;53.652;10.168;2023-02-01T03:12:34;6.70;;;3.07;;
9115;SDS011;4593;53.652;10.168;2023-02-01T03:18:15;9.27;;;2.70;;
9115;SDS011;4593;53.652;10.168;2023-02-01T03:20:43;4.70;;;2.57;;
9115;SDS011;4593;53.652;10.168;2023-02-01T03:23:10;18.07;;;4.97;;
9115;SDS011;4593;53.652;10.168;2023-02-01T03:25:37;10.93;;;3.67;;
9115;SDS011;4593;53.652;10.168;2023-02-01T03:28:04;16.20;;;3.40;;
9115;SDS011;4593;53.652;10.168;2023-02-01T03:30:34;12.50;;;2.70;;
9115;SDS011;4593;53.652;10.168;2023-02-01T03:33:00;8.77;;;3.03;;
9115;SDS011;4593;53.652;10.168;2023-02-01T03:40:52;10.00;;;3.40;;
9115;SDS011;4593;53.652;10.168;2023-02-01T03:43:19;11.70;;;3.17;;
9115;SDS011;4593;53.652;10.168;2023-02-01T03:45:49;9.73;;;2.33;;
9115;SDS011;4593;53.652;10.168;2023-02-01T03:48:16;13.13;;;3.37;;
9115;SDS011;4593;53.652;10.168;2023-02-01T03:50:44;8.10;;;2.87;;
9115;SDS011;4593;53.652;10.168;2023-02-01T03:53:12;8.93;;;3.10;;
9115;SDS011;4593;53.652;10.168;2023-02-01T03:55:39;15.67;;;3.53;;
9115;SDS011;4593;53.652;10.168;2023-02-01T03:58:07;7.90;;;2.30;;
9115;SDS011;4593;53.652;10.168;2023-02-01T04:00:33;3.60;;;2.70;;
9115;SDS011;4593;53.652;10.168;2023-02-01T04:03:00;8.83;;;3.40;;
9115;SDS011;4593;53.652;10.168;2023-02-01T04:05:27;7.90;;;3.53;;
9115;SDS011;4593;53.652;10.168;2023-02-01T04:07:53;9.50;;;2.80;;
9115;SDS011;4593;53.652;10.168;2023-02-01T04:10:19;7.83;;;2.47;;
9115;SDS011;4593;53.652;10.168;2023-02-01T04:12:45;8.97;;;2.90;;
9115;SDS011;4593;53.652;10.168;2023-02-01T04:15:11;3.93;;;2.50;;
9115;SDS011;4593;53.652;10.168;2023-02-01T04:17:37;4.07;;;2.57;;
9115;SDS011;4593;53.652;10.168;2023-02-01T04:20:03;8.20;;;2.47;;
9115;SDS011;4593;53.652;10.168;2023-02-01T04:22:29;7.63;;;2.90;;
9115;SDS011;4593;53.652;10.168;2023-02-01T04:24:55;9.10;;;2.77;;
9115;SDS011;4593;53.652;10.168;2023-02-01T04:27:21;8.53;;;2.60;;
9115;SDS011;4593;53.652;10.168;2023-02-01T04:29:48;12.80;;;3.70;;
9115;SDS011;4593;53.652;10.168;2023-02-01T04:32:17;11.50;;;2.67;;
9115;SDS011;4593;53.652;10.168;2023-02-01T04:34:44;7.50;;;2.27;;
9115;SDS011;4593;53.652;10.168;2023-02-01T04:37:10;8.77;;;2.23;;
9115;SDS011;4593;53.652;10.168;2023-02-01T04:39:36;5.87;;;2.27;;
9115;SDS011;4593;53.652;10.168;2023-02-01T04:42:02;7.90;;;1.80;;
9115;SDS011;4593;53.652;10.168;2023-02-01T04:44:28;4.37;;;2.30;;
9115;SDS011;4593;53.652;10.168;2023-02-01T04:46:55;5.73;;;2.23;;
9115;SDS011;4593;53.652;10.168;2023-02-01T04:49:21;5.00;;;2.13;;
9115;SDS011;4593;53.652;10.168;2023-02-01T04:51:47;7.27;;;2.67;;
9115;SDS011;4593;53.652;10.168;2023-02-01T04:54:13;5.30;;;3.03;;
9115;SDS011;4593;53.652;10.168;2023-02-01T04:56:39;9.13;;;2.60;;
9115;SDS011;4593;53.652;10.168;2023-02-01T04:59:05;7.57;;;2.60;;
9115;SDS011;4593;53.652;10.168;2023-02-01T05:01:31;7.90;;;2.47;;
9115;SDS011;4593;53.652;10.168;2023-02-01T05:03:57;5.03;;;2.47;;
9115;SDS011;4593;53.652;10.168;2023-02-01T05:06:23;11.50;;;2.20;;
9115;SDS011;4593;53.652;10.168;2023-02-01T05:08:49;7.77;;;2.57;;
9115;SDS011;4593;53.652;10.168;2023-02-01T05:11:15;9.97;;;2.30;;
9115;SDS011;4593;53.652;10.168;2023-02-01T05:14:00;3.57;;;1.97;;
9115;SDS011;4593;53.652;10.168;2023-02-01T05:16:26;5.80;;;2.37;;
9115;SDS011;4593;53.652;10.168;2023-02-01T05:18:53;5.00;;;2.73;;
9115;SDS011;4593;53.652;10.168;2023-02-01T05:21:19;14.57;;;3.00;;
9115;SDS011;4593;53.652;10.168;2023-02-01T05:23:45;5.57;;;2.40;;
9115;SDS011;4593;53.652;10.168;2023-02-01T05:26:30;5.13;;;2.17;;
9115;SDS011;4593;53.652;10.168;2023-02-01T05:28:56;8.20;;;2.17;;
9115;SDS011;4593;53.652;10.168;2023-02-01T05:31:23;2.40;;;1.90;;
9115;SDS011;4593;53.652;10.168;2023-02-01T05:33:49;8.87;;;2.30;;
9115;SDS011;4593;53.652;10.168;2023-02-01T05:36:15;2.43;;;2.07;;
9115;SDS011;4593;53.652;10.168;2023-02-01T05:38:41;13.97;;;2.83;;
9115;SDS011;4593;53.652;10.168;2023-02-01T05:41:07;6.00;;;2.33;;
9115;SDS011;4593;53.652;10.168;2023-02-01T05:43:33;2.10;;;2.00;;
9115;SDS011;4593;53.652;10.168;2023-02-01T05:45:59;2.27;;;2.07;;
9115;SDS011;4593;53.652;10.168;2023-02-01T05:48:25;2.57;;;2.00;;
9115;SDS011;4593;53.652;10.168;2023-02-01T05:50:51;5.70;;;2.07;;
9115;SDS011;4593;53.652;10.168;2023-02-01T05:53:17;2.03;;;1.90;;
9115;SDS011;4593;53.652;10.168;2023-02-01T05:55:43;6.07;;;1.77;;
9115;SDS011;4593;53.652;10.168;2023-02-01T05:58:09;1.90;;;1.80;;
9115;SDS011;4593;53.652;10.168;2023-02-01T06:00:37;1.57;;;1.47;;
9115;SDS011;4593;53.652;10.168;2023-02-01T06:03:03;2.50;;;1.90;;
9115;SDS011;4593;53.652;10.168;2023-02-01T06:05:29;1.77;;;1.67;;
9115;SDS011;4593;53.652;10.168;2023-02-01T06:07:55;1.70;;;1.60;;
9115;SDS011;4593;53.652;10.168;2023-02-01T06:10:22;1.70;;;1.60;;
9115;SDS011;4593;53.652;10.168;2023-02-01T06:12:48;3.13;;;2.00;;
9115;SDS011;4593;53.652;10.168;2023-02-01T06:15:14;2.00;;;1.63;;
9115;SDS011;4593;53.652;10.168;2023-02-01T06:17:41;1.70;;;1.60;;
9115;SDS011;4593;53.652;10.168;2023-02-01T06:20:08;2.07;;;1.70;;
9115;SDS011;4593;53.652;10.168;2023-02-01T06:22:35;2.37;;;2.17;;
9115;SDS011;4593;53.652;10.168;2023-02-01T06:25:01;1.87;;;1.73;;
9115;SDS011;4593;53.652;10.168;2023-02-01T06:27:27;2.93;;;2.07;;
9115;SDS011;4593;53.652;10.168;2023-02-01T06:29:53;1.73;;;1.63;;
9115;SDS011;4593;53.652;10.168;2023-02-01T06:32:20;1.80;;;1.70;;
9115;SDS011;4593;53.652;10.168;2023-02-01T06:34:46;3.57;;;1.97;;
9115;SDS011;4593;53.652;10.168;2023-02-01T06:37:12;2.00;;;1.80;;
9115;SDS011;4593;53.652;10.168;2023-02-01T06:39:39;4.10;;;1.70;;
9115;SDS011;4593;53.652;10.168;2023-02-01T06:42:05;2.40;;;2.30;;
9115;SDS011;4593;53.652;10.168;2023-02-01T06:44:31;3.33;;;2.40;;
9115;SDS011;4593;53.652;10.168;2023-02-01T06:46:57;2.83;;;1.97;;
9115;SDS011;4593;53.652;10.168;2023-02-01T06:49:23;1.73;;;1.63;;
9115;SDS011;4593;53.652;10.168;2023-02-01T06:51:49;2.80;;;1.90;;
9115;SDS011;4593;53.652;10.168;2023-02-01T06:54:15;3.03;;;2.10;;
9115;SDS011;4593;53.652;10.168;2023-02-01T06:56:41;2.67;;;1.83;;
9115;SDS011;4593;53.652;10.168;2023-02-01T06:59:07;4.53;;;1.80;;
9115;SDS011;4593;53.652;10.168;2023-02-01T07:01:33;7.60;;;2.40;;
9115;SDS011;4593;53.652;10.168;2023-02-01T07:03:59;4.20;;;2.57;;
9115;SDS011;4593;53.652;10.168;2023-02-01T07:06:25;3.00;;;2.33;;
9115;SDS011;4593;53.652;10.168;2023-02-01T07:08:51;1.87;;;1.77;;
9115;SDS011;4593;53.652;10.168;2023-02-01T07:11:21;2.77;;;1.97;;
9115;SDS011;4593;53.652;10.168;2023-02-01T07:13:47;2.20;;;2.00;;
9115;SDS011;4593;53.652;10.168;2023-02-01T07:16:14;3.23;;;2.37;;
9115;SDS011;4593;53.652;10.168;2023-02-01T07:18:41;3.57;;;2.07;;
9115;SDS011;4593;53.652;10.168;2023-02-01T07:21:07;4.97;;;2.73;;
9115;SDS011;4593;53.652;10.168;2023-02-01T07:23:33;8.63;;;2.50;;
9115;SDS011;4593;53.652;10.168;2023-02-01T07:26:00;4.70;;;2.10;;
9115;SDS011;4593;53.652;10.168;2023-02-01T07:28:27;7.93;;;2.47;;
9115;SDS011;4593;53.652;10.168;2023-02-01T07:30:54;5.43;;;2.23;;
9115;SDS011;4593;53.652;10.168;2023-02-01T07:33:20;7.63;;;2.53;;
9115;SDS011;4593;53.652;10.168;2023-02-01T07:35:47;8.20;;;2.10;;
9115;SDS011;4593;53.652;10.168;2023-02-01T07:38:13;4.57;;;2.40;;
9115;SDS011;4593;53.652;10.168;2023-02-01T07:40:39;3.80;;;2.70;;
9115;SDS011;4593;53.652;10.168;2023-02-01T07:43:05;13.23;;;3.47;;
9115;SDS011;4593;53.652;10.168;2023-02-01T07:45:32;8.40;;;2.40;;
9115;SDS011;4593;53.652;10.168;2023-02-01T07:47:59;3.63;;;3.00;;
9115;SDS011;4593;53.652;10.168;2023-02-01T07:50:25;17.23;;;3.20;;
9115;SDS011;4593;53.652;10.168;2023-02-01T07:52:51;8.07;;;3.17;;
9115;SDS011;4593;53.652;10.168;2023-02-01T07:55:18;8.63;;;2.30;;
9115;SDS011;4593;53.652;10.168;2023-02-01T07:57:44;16.20;;;3.90;;
9115;SDS011;4593;53.652;10.168;2023-02-01T08:00:10;11.13;;;2.83;;
9115;SDS011;4593;53.652;10.168;2023-02-01T08:02:57;13.17;;;3.43;;
9115;SDS011;4593;53.652;10.168;2023-02-01T08:05:23;8.93;;;3.20;;
9115;SDS011;4593;53.652;10.168;2023-02-01T08:07:49;11.70;;;3.10;;
9115;SDS011;4593;53.652;10.168;2023-02-01T08:10:16;7.83;;;4.03;;
9115;SDS011;4593;53.652;10.168;2023-02-01T08:12:42;13.63;;;2.83;;
9115;SDS011;4593;53.652;10.168;2023-02-01T08:15:16;28.73;;;3.50;;
9115;SDS011;4593;53.652;10.168;2023-02-01T08:17:46;5.00;;;3.23;;
9115;SDS011;4593;53.652;10.168;2023-02-01T08:20:12;7.60;;;3.23;;
9115;SDS011;4593;53.652;10.168;2023-02-01T08:22:38;10.37;;;4.20;;
9115;SDS011;4593;53.652;10.168;2023-02-01T08:25:05;12.53;;;3.40;;
9115;SDS011;4593;53.652;10.168;2023-02-01T08:27:34;14.03;;;3.40;;
9115;SDS011;4593;53.652;10.168;2023-02-01T08:30:00;23.67;;;4.07;;
9115;SDS011;4593;53.652;10.168;2023-02-01T08:32:26;28.00;;;3.73;;
9115;SDS011;4593;53.652;10.168;2023-02-01T08:34:52;14.87;;;3.20;;
9115;SDS011;4593;53.652;10.168;2023-02-01T08:37:18;14.20;;;3.20;;
9115;SDS011;4593;53.652;10.168;2023-02-01T08:39:44;8.23;;;3.70;;
9115;SDS011;4593;53.652;10.168;2023-02-01T08:42:11;15.90;;;4.37;;
9115;SDS011;4593;53.652;10.168;2023-02-01T08:44:56;12.23;;;3.30;;
9115;SDS011;4593;53.652;10.168;2023-02-01T08:47:22;12.93;;;3.43;;
9115;SDS011;4593;53.652;10.168;2023-02-01T08:49:48;6.93;;;2.77;;
9115;SDS011;4593;53.652;10.168;2023-02-01T08:52:14;16.80;;;3.73;;
9115;SDS011;4593;53.652;10.168;2023-02-01T08:54:40;16.50;;;3.50;;
9115;SDS011;4593;53.652;10.168;2023-02-01T08:57:07;8.13;;;2.87;;
9115;SDS011;4593;53.652;10.168;2023-02-01T08:59:34;14.83;;;3.20;;
9115;SDS011;4593;53.652;10.168;2023-02-01T09:02:00;9.33;;;2.90;;
9115;SDS011;4593;53.652;10.168;2023-02-01T09:04:26;10.93;;;2.50;;
9115;SDS011;4593;53.652;10.168;2023-02-01T09:06:52;10.20;;;3.50;;
9115;SDS011;4593;53.652;10.168;2023-02-01T09:09:20;16.43;;;2.70;;
9115;SDS011;4593;53.652;10.168;2023-02-01T09:11:46;20.30;;;3.30;;
9115;SDS011;4593;53.652;10.168;2023-02-01T09:14:12;18.87;;;3.67;;
9115;SDS011;4593;53.652;10.168;2023-02-01T09:16:39;8.93;;;2.50;;
9115;SDS011;4593;53.652;10.168;2023-02-01T09:19:06;9.53;;;2.70;;
9115;SDS011;4593;53.652;10.168;2023-02-01T09:21:31;12.57;;;2.60;;
9115;SDS011;4593;53.652;10.168;2023-02-01T09:23:58;11.33;;;2.63;;
9115;SDS011;4593;53.652;10.168;2023-02-01T09:26:24;14.70;;;3.70;;
9115;SDS011;4593;53.652;10.168;2023-02-01T09:28:50;12.83;;;2.77;;
9115;SDS011;4593;53.652;10.168;2023-02-01T09:31:16;9.80;;;2.93;;
9115;SDS011;4593;53.652;10.168;2023-02-01T09:33:42;17.20;;;3.27;;
9115;SDS011;4593;53.652;10.168;2023-02-01T09:36:08;9.83;;;2.73;;
9115;SDS011;4593;53.652;10.168;2023-02-01T09:38:34;14.97;;;3.27;;
9115;SDS011;4593;53.652;10.168;2023-02-01T09:41:01;18.83;;;4.17;;
9115;SDS011;4593;53.652;10.168;2023-02-01T09:48:44;13.33;;;2.93;;
9115;SDS011;4593;53.652;10.168;2023-02-01T09:51:19;23.23;;;4.03;;
9115;SDS011;4593;53.652;10.168;2023-02-01T09:53:48;15.67;;;3.00;;
9115;SDS011;4593;53.652;10.168;2023-02-01T09:56:18;10.80;;;3.10;;
9115;SDS011;4593;53.652;10.168;2023-02-01T09:59:01;20.23;;;3.93;;
9115;SDS011;4593;53.652;10.168;2023-02-01T10:01:29;12.53;;;2.97;;
9115;SDS011;4593;53.652;10.168;2023-02-01T10:04:04;17.63;;;2.93;;
9115;SDS011;4593;53.652;10.168;2023-02-01T10:21:54;11.73;;;3.50;;
9115;SDS011;4593;53.652;10.168;2023-02-01T10:27:20;14.50;;;3.43;;
9115;SDS011;4593;53.652;10.168;2023-02-01T10:29:40;16.90;;;3.73;;
9115;SDS011;4593;53.652;10.168;2023-02-01T10:32:13;11.33;;;3.23;;
9115;SDS011;4593;53.652;10.168;2023-02-01T10:34:40;10.67;;;3.80;;
9115;SDS011;4593;53.652;10.168;2023-02-01T10:39:55;8.67;;;3.57;;
9115;SDS011;4593;53.652;10.168;2023-02-01T10:42:24;12.37;;;3.77;;
9115;SDS011;4593;53.652;10.168;2023-02-01T10:44:51;10.77;;;2.87;;
9115;SDS011;4593;53.652;10.168;2023-02-01T10:47:17;16.97;;;3.10;;
9115;SDS011;4593;53.652;10.168;2023-02-01T10:49:47;8.43;;;2.80;;
9115;SDS011;4593;53.652;10.168;2023-02-01T10:52:20;20.80;;;4.40;;
9115;SDS011;4593;53.652;10.168;2023-02-01T10:54:52;6.43;;;2.80;;
9115;SDS011;4593;53.652;10.168;2023-02-01T10:57:22;20.30;;;4.00;;
9115;SDS011;4593;53.652;10.168;2023-02-01T10:59:50;8.03;;;2.57;;
9115;SDS011;4593;53.652;10.168;2023-02-01T11:04:42;6.37;;;3.30;;
9115;SDS011;4593;53.652;10.168;2023-02-01T11:07:13;14.03;;;3.00;;
9115;SDS011;4593;53.652;10.168;2023-02-01T11:09:42;15.43;;;3.77;;
9115;SDS011;4593;53.652;10.168;2023-02-01T11:14:48;5.03;;;2.80;;
9115;SDS011;4593;53.652;10.168;2023-02-01T11:19:45;6.13;;;2.77;;
9115;SDS011;4593;53.652;10.168;2023-02-01T11:22:13;6.13;;;2.63;;
9115;SDS011;4593;53.652;10.168;2023-02-01T11:24:40;11.77;;;3.27;;
9115;SDS011;4593;53.652;10.168;2023-02-01T11:27:12;9.83;;;2.53;;
9115;SDS011;4593;53.652;10.168;2023-02-01T11:29:40;11.00;;;2.83;;
9115;SDS011;4593;53.652;10.168;2023-02-01T11:32:08;8.03;;;3.37;;
9115;SDS011;4593;53.652;10.168;2023-02-01T11:34:37;4.90;;;2.93;;
9115;SDS011;4593;53.652;10.168;2023-02-01T11:37:04;22.47;;;3.17;;
9115;SDS011;4593;53.652;10.168;2023-02-01T11:39:35;8.23;;;2.97;;
9115;SDS011;4593;53.652;10.168;2023-02-01T11:42:16;13.00;;;3.50;;
9115;SDS011;4593;53.652;10.168;2023-02-01T11:44:43;15.40;;;2.67;;
9115;SDS011;4593;53.652;10.168;2023-02-01T11:49:42;16.30;;;3.07;;
9115;SDS011;4593;53.652;10.168;2023-02-01T11:52:11;20.40;;;3.30;;
9115;SDS011;4593;53.652;10.168;2023-02-01T12:07:28;3.10;;;2.23;;
9115;SDS011;4593;53.652;10.168;2023-02-01T12:15:54;13.17;;;2.60;;
9115;SDS011;4593;53.652;10.168;2023-02-01T12:30:53;4.53;;;2.30;;
9115;SDS011;4593;53.652;10.168;2023-02-01T12:44:00;8.83;;;2.60;;
9115;SDS011;4593;53.652;10.168;2023-02-01T12:46:33;1.90;;;1.80;;
9115;SDS011;4593;53.652;10.168;2023-02-01T12:49:12;3.40;;;2.00;;
9115;SDS011;4593;53.652;10.168;2023-02-01T12:51:42;1.93;;;1.57;;
9115;SDS011;4593;53.652;10.168;2023-02-01T12:54:53;2.13;;;1.80;;
9115;SDS011;4593;53.652;10.168;2023-02-01T12:56:59;5.60;;;2.03;;
9115;SDS011;4593;53.652;10.168;2023-02-01T12:59:42;1.83;;;1.73;;
9115;SDS011;4593;53.652;10.168;2023-02-01T13:07:12;2.07;;;1.90;;
9115;SDS011;4593;53.652;10.168;2023-02-01T13:09:57;1.77;;;1.67;;
9115;SDS011;4593;53.652;10.168;2023-02-01T13:12:30;8.23;;;1.93;;
9115;SDS011;4593;53.652;10.168;2023-02-01T13:15:00;2.90;;;1.60;;
9115;SDS011;4593;53.652;10.168;2023-02-01T13:17:27;1.60;;;1.50;;
9115;SDS011;4593;53.652;10.168;2023-02-01T13:19:59;1.80;;;1.70;;
9115;SDS011;4593;53.652;10.168;2023-02-01T13:22:28;2.80;;;1.83;;
9115;SDS011;4593;53.652;10.168;2023-02-01T13:24:59;3.17;;;2.50;;
9115;SDS011;4593;53.652;10.168;2023-02-01T13:27:29;1.93;;;1.83;;
9115;SDS011;4593;53.652;10.168;2023-02-01T13:32:26;1.87;;;1.77;;
9115;SDS011;4593;53.652;10.168;2023-02-01T13:40:19;1.80;;;1.70;;
9115;SDS011;4593;53.652;10.168;2023-02-01T13:45:14;2.07;;;1.77;;
9115;SDS011;4593;53.652;10.168;2023-02-01T13:47:42;1.73;;;1.63;;
9115;SDS011;4593;53.652;10.168;2023-02-01T13:52:55;12.03;;;2.33;;
9115;SDS011;4593;53.652;10.168;2023-02-01T13:57:49;1.67;;;1.57;;
9115;SDS011;4593;53.652;10.168;2023-02-01T14:10:51;1.77;;;1.67;;
9115;SDS011;4593;53.652;10.168;2023-02-01T14:13:32;6.63;;;1.83;;
9115;SDS011;4593;53.652;10.168;2023-02-01T14:23:44;3.57;;;1.90;;
9115;SDS011;4593;53.652;10.168;2023-02-01T14:26:16;1.70;;;1.60;;
9115;SDS011;4593;53.652;10.168;2023-02-01T14:31:40;4.17;;;2.13;;
9115;SDS011;4593;53.652;10.168;2023-02-01T14:34:11;5.90;;;2.23;;
9115;SDS011;4593;53.652;10.168;2023-02-01T14:36:58;4.77;;;2.50;;
9115;SDS011;4593;53.652;10.168;2023-02-01T14:39:29;17.13;;;2.90;;
9115;SDS011;4593;53.652;10.168;2023-02-01T14:41:57;4.40;;;2.00;;
9115;SDS011;4593;53.652;10.168;2023-02-01T14:44:25;5.03;;;2.53;;
9115;SDS011;4593;53.652;10.168;2023-02-01T14:47:08;1.80;;;1.70;;
9115;SDS011;4593;53.652;10.168;2023-02-01T14:49:37;3.53;;;1.70;;
9115;SDS011;4593;53.652;10.168;2023-02-01T14:52:06;6.90;;;2.63;;
9115;SDS011;4593;53.652;10.168;2023-02-01T14:54:35;12.53;;;2.40;;
9115;SDS011;4593;53.652;10.168;2023-02-01T14:57:02;2.43;;;2.23;;
9115;SDS011;4593;53.652;10.168;2023-02-01T14:59:30;3.43;;;2.07;;
9115;SDS011;4593;53.652;10.168;2023-02-01T15:01:58;13.47;;;2.47;;
9115;SDS011;4593;53.652;10.168;2023-02-01T15:04:25;3.90;;;2.10;;
9115;SDS011;4593;53.652;10.168;2023-02-01T15:06:53;9.20;;;2.73;;
9115;SDS011;4593;53.652;10.168;2023-02-01T15:09:25;3.57;;;2.67;;
9115;SDS011;4593;53.652;10.168;2023-02-01T15:11:56;2.50;;;2.30;;
9115;SDS011;4593;53.652;10.168;2023-02-01T15:14:23;2.33;;;2.10;;
9115;SDS011;4593;53.652;10.168;2023-02-01T15:16:49;3.53;;;2.40;;
9115;SDS011;4593;53.652;10.168;2023-02-01T15:19:19;4.50;;;2.17;;
9115;SDS011;4593;53.652;10.168;2023-02-01T15:21:50;3.10;;;2.00;;
9115;SDS011;4593;53.652;10.168;2023-02-01T15:24:27;3.60;;;2.80;;
9115;SDS011;4593;53.652;10.168;2023-02-01T15:26:54;1.87;;;1.77;;
9115;SDS011;4593;53.652;10.168;2023-02-01T15:29:20;3.50;;;2.10;;
9115;SDS011;4593;53.652;10.168;2023-02-01T15:31:50;2.60;;;2.10;;
9115;SDS011;4593;53.652;10.168;2023-02-01T15:34:17;12.60;;;2.67;;
9115;SDS011;4593;53.652;10.168;2023-02-01T15:36:44;14.83;;;2.30;;
9115;SDS011;4593;53.652;10.168;2023-02-01T15:39:23;2.60;;;2.13;;
9115;SDS011;4593;53.652;10.168;2023-02-01T15:41:56;8.33;;;2.20;;
9115;SDS011;4593;53.652;10.168;2023-02-01T15:44:41;2.50;;;2.23;;
9115;SDS011;4593;53.652;10.168;2023-02-01T15:47:15;3.07;;;2.63;;
9115;SDS011;4593;53.652;10.168;2023-02-01T15:49:42;6.67;;;3.47;;
9115;SDS011;4593;53.652;10.168;2023-02-01T15:54:53;5.43;;;2.23;;
9115;SDS011;4593;53.652;10.168;2023-02-01T15:57:31;8.37;;;2.13;;
9115;SDS011;4593;53.652;10.168;2023-02-01T15:59:59;9.13;;;2.53;;
9115;SDS011;4593;53.652;10.168;2023-02-01T16:02:27;8.00;;;3.00;;
9115;SDS011;4593;53.652;10.168;2023-02-01T16:04:54;3.93;;;2.27;;
9115;SDS011;4593;53.652;10.168;2023-02-01T16:07:22;8.10;;;2.40;;
9115;SDS011;4593;53.652;10.168;2023-02-01T16:09:52;6.67;;;2.53;;
9115;SDS011;4593;53.652;10.168;2023-02-01T16:15:06;8.10;;;2.67;;
9115;SDS011;4593;53.652;10.168;2023-02-01T16:17:32;11.03;;;2.60;;
9115;SDS011;4593;53.652;10.168;2023-02-01T16:19:58;7.43;;;2.40;;
9115;SDS011;4593;53.652;10.168;2023-02-01T16:22:24;5.33;;;2.80;;
9115;SDS011;4593;53.652;10.168;2023-02-01T16:24:50;3.30;;;2.73;;
9115;SDS011;4593;53.652;10.168;2023-02-01T16:27:16;20.63;;;3.80;;
9115;SDS011;4593;53.652;10.168;2023-02-01T16:29:42;17.57;;;3.30;;
9115;SDS011;4593;53.652;10.168;2023-02-01T16:32:18;18.83;;;3.10;;
9115;SDS011;4593;53.652;10.168;2023-02-01T16:34:45;25.03;;;3.63;;
9115;SDS011;4593;53.652;10.168;2023-02-01T16:37:16;10.23;;;3.27;;
9115;SDS011;4593;53.652;10.168;2023-02-01T16:39:44;9.90;;;3.70;;
9115;SDS011;4593;53.652;10.168;2023-02-01T16:42:11;9.53;;;3.17;;
9115;SDS011;4593;53.652;10.168;2023-02-01T16:44:37;8.20;;;3.17;;
9115;SDS011;4593;53.652;10.168;2023-02-01T16:47:05;10.10;;;2.67;;
9115;SDS011;4593;53.652;10.168;2023-02-01T16:49:35;17.77;;;3.17;;
9115;SDS011;4593;53.652;10.168;2023-02-01T16:52:01;7.87;;;2.87;;
9115;SDS011;4593;53.652;10.168;2023-02-01T16:54:27;8.07;;;3.90;;
9115;SDS011;4593;53.652;10.168;2023-02-01T16:56:53;15.73;;;2.97;;
9115;SDS011;4593;53.652;10.168;2023-02-01T16:59:20;12.77;;;3.50;;
9115;SDS011;4593;53.652;10.168;2023-02-01T17:01:46;15.90;;;4.57;;
9115;SDS011;4593;53.652;10.168;2023-02-01T17:04:12;17.33;;;3.10;;
9115;SDS011;4593;53.652;10.168;2023-02-01T17:06:38;14.37;;;3.80;;
9115;SDS011;4593;53.652;10.168;2023-02-01T17:09:05;16.40;;;4.33;;
9115;SDS011;4593;53.652;10.168;2023-02-01T17:11:31;14.20;;;4.40;;
9115;SDS011;4593;53.652;10.168;2023-02-01T17:14:04;4.73;;;3.80;;
9115;SDS011;4593;53.652;10.168;2023-02-01T17:16:35;3.93;;;3.13;;
9115;SDS011;4593;53.652;10.168;2023-02-01T17:19:04;18.67;;;3.80;;
9115;SDS011;4593;53.652;10.168;2023-02-01T17:21:34;10.13;;;5.17;;
9115;SDS011;4593;53.652;10.168;2023-02-01T17:24:03;7.93;;;3.20;;
9115;SDS011;4593;53.652;10.168;2023-02-01T17:26:29;20.10;;;3.60;;
9115;SDS011;4593;53.652;10.168;2023-02-01T17:28:55;16.37;;;4.43;;
9115;SDS011;4593;53.652;10.168;2023-02-01T17:31:22;18.57;;;4.53;;
9115;SDS011;4593;53.652;10.168;2023-02-01T17:33:48;4.60;;;3.50;;
9115;SDS011;4593;53.652;10.168;2023-02-01T17:36:15;17.93;;;4.10;;
9115;SDS011;4593;53.652;10.168;2023-02-01T17:38:41;12.00;;;3.97;;
9115;SDS011;4593;53.652;10.168;2023-02-01T17:41:11;14.30;;;4.03;;